createdAt,value
2022-08-24T00:00:50.488Z,68
2022-08-24T00:02:51.264Z,68
2022-08-24T00:04:50.983Z,68
2022-08-24T00:06:50.233Z,67
2022-08-24T00:08:50.238Z,67
2022-08-24T00:10:50.328Z,68
2022-08-24T00:12:50.055Z,68
2022-08-24T00:14:50.986Z,68
2022-08-24T00:16:50.691Z,69
2022-08-24T00:18:50.608Z,71
2022-08-24T00:20:50.610Z,72
2022-08-24T00:22:50.939Z,72
2022-08-24T00:24:50.834Z,72
2022-08-24T00:26:50.362Z,72
2022-08-24T00:28:50.381Z,72
2022-08-24T00:30:50.459Z,71
2022-08-24T00:32:50.310Z,71
2022-08-24T00:34:59.937Z,70
2022-08-24T00:36:50.068Z,70
2022-08-24T00:38:50.058Z,70
2022-08-24T00:40:50.892Z,69
2022-08-24T00:42:50.797Z,69
2022-08-24T00:44:50.630Z,70
2022-08-24T00:46:50.937Z,69
2022-08-24T00:48:50.849Z,69
2022-08-24T00:50:50.921Z,69
2022-08-24T00:52:50.993Z,69
2022-08-24T00:54:50.054Z,70
2022-08-24T00:56:50.493Z,71
2022-08-24T00:58:57.770Z,72
2022-08-24T01:00:50.893Z,73
2022-08-24T01:02:50.689Z,73
2022-08-24T01:04:50.297Z,72
2022-08-24T01:06:50.470Z,71
2022-08-24T01:08:59.110Z,71
2022-08-24T01:10:50.919Z,71
2022-08-24T01:13:01.931Z,71
2022-08-24T01:14:50.400Z,71
2022-08-24T01:16:50.630Z,71
2022-08-24T01:18:50.449Z,71
2022-08-24T01:20:50.531Z,71
2022-08-24T01:22:50.359Z,71
2022-08-24T01:24:50.338Z,71
2022-08-24T01:26:50.515Z,71
2022-08-24T01:28:52.483Z,71
2022-08-24T01:30:50.482Z,71
2022-08-24T01:32:50.462Z,71
2022-08-24T01:34:50.867Z,71
2022-08-24T01:36:50.116Z,71
2022-08-24T01:38:50.157Z,71
2022-08-24T01:40:50.087Z,72
2022-08-24T01:42:51.095Z,71
2022-08-24T01:44:50.813Z,73
2022-08-24T01:46:50.704Z,73
2022-08-24T01:48:50.936Z,73
2022-08-24T01:50:50.877Z,72
2022-08-24T01:53:06.563Z,72
2022-08-24T01:54:53.649Z,72
2022-08-24T01:56:51.661Z,72
2022-08-24T01:58:50.883Z,72
2022-08-24T02:00:50.687Z,72
2022-08-24T02:02:51.253Z,72
2022-08-24T02:04:50.701Z,72
2022-08-24T02:06:50.195Z,72
2022-08-24T02:08:50.373Z,72
2022-08-24T02:10:57.571Z,72
2022-08-24T02:12:50.418Z,73
2022-08-24T02:14:50.415Z,73
2022-08-24T02:16:50.748Z,73
2022-08-24T02:18:50.568Z,73
2022-08-24T02:20:50.332Z,73
2022-08-24T02:22:51.003Z,73
2022-08-24T02:24:50.878Z,73
2022-08-24T02:26:50.037Z,73
2022-08-24T02:28:50.916Z,73
2022-08-24T02:30:51.253Z,73
2022-08-24T02:32:50.458Z,73
2022-08-24T02:34:55.430Z,73
2022-08-24T02:36:50.582Z,73
2022-08-24T02:38:50.581Z,73
2022-08-24T02:40:50.464Z,73
2022-08-24T02:42:50.404Z,73
2022-08-24T02:44:55.553Z,73
2022-08-24T02:46:50.758Z,73
2022-08-24T02:49:12.411Z,73
2022-08-24T02:50:50.488Z,73
2022-08-24T02:52:50.518Z,73
2022-08-24T02:54:50.405Z,73
2022-08-24T02:56:50.657Z,73
2022-08-24T02:58:54.862Z,73
2022-08-24T03:00:50.786Z,73
2022-08-24T03:02:51.356Z,73
2022-08-24T03:04:51.022Z,73
2022-08-24T03:06:50.326Z,73
2022-08-24T03:08:57.455Z,74
2022-08-24T03:10:50.499Z,74
2022-08-24T03:12:50.380Z,74
2022-08-24T03:14:50.316Z,74
2022-08-24T03:16:50.693Z,74
2022-08-24T03:18:50.719Z,74
2022-08-24T03:20:50.834Z,74
2022-08-24T03:22:50.743Z,74
2022-08-24T03:24:50.621Z,74
2022-08-24T03:26:50.755Z,74
2022-08-24T03:28:50.205Z,74
2022-08-24T03:30:52.402Z,74
2022-08-24T03:32:50.482Z,74
2022-08-24T03:34:50.150Z,74
2022-08-24T03:36:50.346Z,74
2022-08-24T03:38:50.390Z,74
2022-08-24T03:40:50.238Z,75
2022-08-24T03:42:51.888Z,75
2022-08-24T03:44:50.852Z,75
2022-08-24T03:46:50.841Z,75
2022-08-24T03:48:50.728Z,75
2022-08-24T03:50:50.568Z,75
2022-08-24T03:52:50.369Z,75
2022-08-24T03:54:50.155Z,75
2022-08-24T03:56:50.362Z,75
2022-08-24T03:58:50.292Z,75
2022-08-24T04:00:50.700Z,75
2022-08-24T04:02:51.057Z,75
2022-08-24T04:04:50.866Z,75
2022-08-24T04:06:50.204Z,77
2022-08-24T04:08:50.209Z,78
2022-08-24T04:10:50.052Z,78
2022-08-24T04:12:55.528Z,79
2022-08-24T04:14:50.496Z,79
2022-08-24T04:16:58.695Z,79
2022-08-24T04:18:50.645Z,79
2022-08-24T04:20:50.513Z,80
2022-08-24T04:22:50.302Z,79
2022-08-24T04:24:50.238Z,79
2022-08-24T04:26:50.504Z,79
2022-08-24T04:28:50.547Z,79
2022-08-24T04:30:50.254Z,79
2022-08-24T04:32:50.221Z,80
2022-08-24T04:34:50.782Z,80
2022-08-24T04:36:50.138Z,80
2022-08-24T04:38:50.222Z,80
2022-08-24T04:40:50.480Z,80
2022-08-24T04:42:50.556Z,80
2022-08-24T04:44:50.605Z,80
2022-08-24T04:46:50.676Z,80
2022-08-24T04:48:50.605Z,80
2022-08-24T04:50:50.387Z,80
2022-08-24T04:52:50.305Z,80
2022-08-24T04:54:50.252Z,80
2022-08-24T04:56:50.466Z,80
2022-08-24T04:58:50.396Z,80
2022-08-24T05:00:50.742Z,80
2022-08-24T05:02:50.917Z,80
2022-08-24T05:04:50.408Z,80
2022-08-24T05:06:55.020Z,79
2022-08-24T05:08:50.868Z,79
2022-08-24T05:10:50.906Z,79
2022-08-24T05:12:50.752Z,79
2022-08-24T05:14:50.922Z,79
2022-08-24T05:16:54.713Z,79
2022-08-24T05:18:50.683Z,78
2022-08-24T05:20:50.630Z,78
2022-08-24T05:23:05.752Z,79
2022-08-24T05:24:50.227Z,79
2022-08-24T05:26:50.391Z,78
2022-08-24T05:28:50.558Z,78
2022-08-24T05:30:51.741Z,78
2022-08-24T05:32:50.901Z,79
2022-08-24T05:34:50.394Z,79
2022-08-24T05:36:50.711Z,79
2022-08-24T05:38:50.947Z,79
2022-08-24T05:40:50.234Z,79
2022-08-24T05:42:50.156Z,79
2022-08-24T05:44:50.188Z,79
2022-08-24T05:46:50.971Z,79
2022-08-24T05:48:53.763Z,79
2022-08-24T05:50:50.779Z,79
2022-08-24T05:52:50.816Z,79
2022-08-24T05:54:50.803Z,79
2022-08-24T05:56:50.037Z,79
2022-08-24T05:58:50.969Z,78
2022-08-24T06:00:50.117Z,78
2022-08-24T06:02:51.750Z,78
2022-08-24T06:04:50.425Z,78
2022-08-24T06:06:50.923Z,78
2022-08-24T06:08:50.831Z,78
2022-08-24T06:10:50.627Z,78
2022-08-24T06:12:50.520Z,78
2022-08-24T06:14:50.367Z,78
2022-08-24T06:16:51.414Z,78
2022-08-24T06:18:50.379Z,78
2022-08-24T06:20:58.380Z,78
2022-08-24T06:22:50.390Z,78
2022-08-24T06:24:50.317Z,78
2022-08-24T06:26:51.004Z,78
2022-08-24T06:28:50.172Z,78
2022-08-24T06:30:50.107Z,77
2022-08-24T06:32:51.190Z,77
2022-08-24T06:34:50.594Z,77
2022-08-24T06:36:51.883Z,77
2022-08-24T06:38:50.810Z,77
2022-08-24T06:40:50.798Z,77
2022-08-24T06:42:50.581Z,77
2022-08-24T06:44:50.507Z,76
2022-08-24T06:46:51.240Z,76
2022-08-24T06:48:50.229Z,76
2022-08-24T06:50:50.094Z,76
2022-08-24T06:52:50.944Z,76
2022-08-24T06:54:50.991Z,76
2022-08-24T06:56:50.155Z,76
2022-08-24T06:58:50.965Z,76
2022-08-24T07:00:55.403Z,75
2022-08-24T07:02:51.377Z,75
2022-08-24T07:04:50.934Z,75
2022-08-24T07:06:50.800Z,75
2022-08-24T07:08:50.773Z,75
2022-08-24T07:10:50.780Z,75
2022-08-24T07:12:51.081Z,74
2022-08-24T07:14:50.986Z,74
2022-08-24T07:16:50.198Z,74
2022-08-24T07:18:51.277Z,74
2022-08-24T07:20:50.599Z,73
2022-08-24T07:22:50.861Z,73
2022-08-24T07:24:52.606Z,73
2022-08-24T07:26:50.755Z,73
2022-08-24T07:28:50.747Z,73
2022-08-24T07:30:51.166Z,73
2022-08-24T07:32:50.127Z,73
2022-08-24T07:34:50.493Z,73
2022-08-24T07:36:50.731Z,72
2022-08-24T07:38:50.877Z,72
2022-08-24T07:41:43.257Z,72
2022-08-24T07:42:50.874Z,72
2022-08-24T07:44:51.053Z,72
2022-08-24T07:46:51.592Z,71
2022-08-24T07:49:36.376Z,71
2022-08-24T07:50:50.986Z,71
2022-08-24T07:52:50.765Z,71
2022-08-24T07:54:50.643Z,71
2022-08-24T07:56:50.170Z,71
2022-08-24T07:58:55.064Z,71
2022-08-24T08:00:50.248Z,70
2022-08-24T08:02:50.884Z,69
2022-08-24T08:04:50.766Z,69
2022-08-24T08:06:50.510Z,69
2022-08-24T08:08:50.648Z,69
2022-08-24T08:10:50.555Z,69
2022-08-24T08:12:50.553Z,69
2022-08-24T08:14:50.379Z,69
2022-08-24T08:16:50.675Z,69
2022-08-24T08:19:11.856Z,69
2022-08-24T08:20:50.930Z,69
2022-08-24T08:22:50.254Z,68
2022-08-24T08:24:50.788Z,68
2022-08-24T08:26:50.129Z,68
2022-08-24T08:28:50.885Z,68
2022-08-24T08:30:53.164Z,67
2022-08-24T08:32:50.066Z,66
2022-08-24T08:34:50.339Z,66
2022-08-24T08:36:50.514Z,66
2022-08-24T08:38:50.519Z,66
2022-08-24T08:40:51.623Z,65
2022-08-24T08:42:50.701Z,65
2022-08-24T08:44:50.604Z,65
2022-08-24T08:46:50.975Z,65
2022-08-24T08:48:50.962Z,65
2022-08-24T08:50:50.999Z,65
2022-08-24T08:52:50.811Z,64
2022-08-24T08:54:50.901Z,64
2022-08-24T08:56:56.054Z,65
2022-08-24T08:59:00.429Z,65
2022-08-24T09:00:50.286Z,65
2022-08-24T09:02:50.254Z,63
2022-08-24T09:04:50.993Z,64
2022-08-24T09:06:50.438Z,62
2022-08-24T09:08:52.767Z,62
2022-08-24T09:10:50.740Z,62
2022-08-24T09:12:50.631Z,62
2022-08-24T09:14:50.794Z,62
2022-08-24T09:16:50.712Z,61
2022-08-24T09:18:50.732Z,62
2022-08-24T09:20:50.557Z,62
2022-08-24T09:22:50.553Z,61
2022-08-24T09:24:50.678Z,60
2022-08-24T09:26:50.858Z,60
2022-08-24T09:28:50.678Z,60
2022-08-24T09:30:51.142Z,59
2022-08-24T09:32:50.569Z,59
2022-08-24T09:34:50.839Z,59
2022-08-24T09:36:50.086Z,59
2022-08-24T09:38:52.886Z,60
2022-08-24T09:40:50.937Z,59
2022-08-24T09:42:50.823Z,59
2022-08-24T09:44:50.634Z,59
2022-08-24T09:46:50.799Z,59
2022-08-24T09:48:50.785Z,58
2022-08-24T09:50:52.191Z,58
2022-08-24T09:52:50.871Z,58
2022-08-24T09:54:50.666Z,58
2022-08-24T09:57:17.261Z,58
2022-08-24T09:58:50.505Z,58
2022-08-24T10:00:52.504Z,58
2022-08-24T10:02:50.996Z,58
2022-08-24T10:04:51.225Z,57
2022-08-24T10:06:50.650Z,57
2022-08-24T10:08:50.901Z,57
2022-08-24T10:10:50.740Z,57
2022-08-24T10:12:57.063Z,57
2022-08-24T10:14:50.909Z,56
2022-08-24T10:16:50.902Z,56
2022-08-24T10:18:50.922Z,56
2022-08-24T10:20:50.661Z,56
2022-08-24T10:22:50.740Z,56
2022-08-24T10:24:50.636Z,55
2022-08-24T10:26:50.121Z,55
2022-08-24T10:28:50.141Z,55
2022-08-24T10:30:50.106Z,54
2022-08-24T10:32:50.965Z,54
2022-08-24T10:34:50.718Z,55
2022-08-24T10:36:50.235Z,55
2022-08-24T10:38:50.233Z,56
2022-08-24T10:40:50.582Z,54
2022-08-24T10:42:50.615Z,53
2022-08-24T10:44:50.733Z,53
2022-08-24T10:46:59.104Z,53
2022-08-24T10:48:50.075Z,53
2022-08-24T10:50:50.062Z,53
2022-08-24T10:52:50.174Z,53
2022-08-24T10:54:50.176Z,53
2022-08-24T10:56:50.375Z,53
2022-08-24T10:58:50.600Z,53
2022-08-24T11:00:50.963Z,52
2022-08-24T11:02:50.792Z,53
2022-08-24T11:04:50.088Z,53
2022-08-24T11:06:50.179Z,53
2022-08-24T11:08:50.157Z,52
2022-08-24T11:10:50.155Z,52
2022-08-24T11:12:56.703Z,53
2022-08-24T11:14:50.643Z,52
2022-08-24T11:16:58.431Z,52
2022-08-24T11:18:50.541Z,52
2022-08-24T11:20:50.522Z,53
2022-08-24T11:22:50.586Z,53
2022-08-24T11:24:50.590Z,53
2022-08-24T11:26:55.845Z,53
2022-08-24T11:28:50.718Z,53
2022-08-24T11:30:50.617Z,52
2022-08-24T11:32:50.519Z,53
2022-08-24T11:34:50.801Z,53
2022-08-24T11:36:51.012Z,53
2022-08-24T11:38:50.944Z,53
2022-08-24T11:40:50.964Z,53
2022-08-24T11:42:50.813Z,53
2022-08-24T11:44:51.435Z,53
2022-08-24T11:46:51.200Z,53
2022-08-24T11:48:50.253Z,52
2022-08-24T11:50:50.042Z,52
2022-08-24T11:52:50.045Z,52
2022-08-24T11:54:51.212Z,52
2022-08-24T11:56:50.483Z,52
2022-08-24T11:58:50.425Z,52
2022-08-24T12:00:50.236Z,51
2022-08-24T12:02:51.141Z,51
2022-08-24T12:04:50.564Z,52
2022-08-24T12:06:57.515Z,51
2022-08-24T12:08:50.382Z,51
2022-08-24T12:10:50.370Z,51
2022-08-24T12:12:50.047Z,51
2022-08-24T12:14:50.105Z,51
2022-08-24T12:16:50.680Z,51
2022-08-24T12:18:50.431Z,49
2022-08-24T12:20:50.437Z,51
2022-08-24T12:22:51.026Z,51
2022-08-24T12:24:50.981Z,51
2022-08-24T12:26:50.142Z,51
2022-08-24T12:28:55.271Z,51
2022-08-24T12:30:50.234Z,51
2022-08-24T12:32:50.194Z,51
2022-08-24T12:34:50.722Z,50
2022-08-24T12:36:50.114Z,50
2022-08-24T12:38:50.885Z,50
2022-08-24T12:40:50.594Z,50
2022-08-24T12:42:53.286Z,50
2022-08-24T12:44:51.400Z,50
2022-08-24T12:46:50.999Z,50
2022-08-24T12:48:50.880Z,50
2022-08-24T12:50:50.731Z,50
2022-08-24T12:52:50.743Z,51
2022-08-24T12:54:50.579Z,50
2022-08-24T12:56:50.855Z,48
2022-08-24T12:58:55.865Z,50
2022-08-24T13:00:50.990Z,50
2022-08-24T13:02:50.928Z,48
2022-08-24T13:04:50.853Z,48
2022-08-24T13:06:51.031Z,48
2022-08-24T13:08:51.953Z,48
2022-08-24T13:10:50.861Z,48
2022-08-24T13:12:50.957Z,48
2022-08-24T13:14:57.839Z,48
2022-08-24T13:16:50.096Z,47
2022-08-24T13:18:51.085Z,47
2022-08-24T13:20:50.158Z,48
2022-08-24T13:22:50.377Z,47
2022-08-24T13:24:50.374Z,47
2022-08-24T13:26:50.683Z,47
2022-08-24T13:28:57.512Z,47
2022-08-24T13:30:50.720Z,47
2022-08-24T13:32:50.704Z,47
2022-08-24T13:34:50.217Z,47
2022-08-24T13:36:50.580Z,47
2022-08-24T13:38:52.964Z,47
2022-08-24T13:40:50.908Z,47
2022-08-24T13:42:50.999Z,48
2022-08-24T13:44:50.575Z,48
2022-08-24T13:46:51.090Z,47
2022-08-24T13:48:50.117Z,47
2022-08-24T13:50:50.278Z,47
2022-08-24T13:52:50.227Z,46
2022-08-24T13:54:50.157Z,46
2022-08-24T13:56:51.836Z,46
2022-08-24T13:58:51.297Z,45
2022-08-24T14:00:50.228Z,45
2022-08-24T14:02:50.134Z,45
2022-08-24T14:04:53.444Z,44
2022-08-24T14:06:50.642Z,44
2022-08-24T14:08:50.585Z,45
2022-08-24T14:10:54.729Z,45
2022-08-24T14:12:50.794Z,44
2022-08-24T14:14:50.718Z,44
2022-08-24T14:16:50.143Z,44
2022-08-24T14:18:50.655Z,44
2022-08-24T14:20:50.693Z,44
2022-08-24T14:22:50.133Z,44
2022-08-24T14:24:50.293Z,44
2022-08-24T14:26:53.582Z,44
2022-08-24T14:28:50.719Z,44
2022-08-24T14:30:55.841Z,44
2022-08-24T14:32:50.749Z,44
2022-08-24T14:34:50.175Z,44
2022-08-24T14:36:58.049Z,43
2022-08-24T14:38:50.962Z,44
2022-08-24T14:40:50.733Z,44
2022-08-24T14:42:50.044Z,44
2022-08-24T14:44:50.862Z,44
2022-08-24T14:46:50.621Z,43
2022-08-24T14:48:55.860Z,42
2022-08-24T14:50:50.857Z,43
2022-08-24T14:52:51.119Z,43
2022-08-24T14:54:50.283Z,43
2022-08-24T14:56:50.554Z,43
2022-08-24T14:58:50.241Z,42
2022-08-24T15:00:52.322Z,43
2022-08-24T15:02:51.062Z,43
2022-08-24T15:04:50.554Z,43
2022-08-24T15:06:50.769Z,43
2022-08-24T15:08:50.744Z,43
2022-08-24T15:10:51.046Z,43
2022-08-24T15:12:50.077Z,43
2022-08-24T15:14:52.269Z,43
2022-08-24T15:16:55.851Z,43
2022-08-24T15:18:50.771Z,43
2022-08-24T15:20:50.744Z,43
2022-08-24T15:22:50.619Z,44
2022-08-24T15:24:50.538Z,43
2022-08-24T15:26:51.019Z,43
2022-08-24T15:28:57.487Z,44
2022-08-24T15:30:50.621Z,44
2022-08-24T15:32:50.393Z,44
2022-08-24T15:34:50.997Z,44
2022-08-24T15:36:50.343Z,44
2022-08-24T15:38:50.354Z,44
2022-08-24T15:40:50.212Z,44
2022-08-24T15:42:50.186Z,44
2022-08-24T15:44:50.070Z,44
2022-08-24T15:46:50.266Z,45
2022-08-24T15:48:50.220Z,44
2022-08-24T15:50:50.190Z,44
2022-08-24T15:52:50.223Z,45
2022-08-24T15:54:50.329Z,45
2022-08-24T15:56:50.310Z,45
2022-08-24T15:58:50.226Z,45
2022-08-24T16:00:51.013Z,45
2022-08-24T16:02:50.388Z,45
2022-08-24T16:04:50.805Z,45
2022-08-24T16:06:50.307Z,45
2022-08-24T16:08:50.092Z,45
2022-08-24T16:10:50.068Z,45
2022-08-24T16:12:51.042Z,45
2022-08-24T16:14:50.061Z,45
2022-08-24T16:16:50.744Z,45
2022-08-24T16:18:50.613Z,46
2022-08-24T16:20:50.562Z,46
2022-08-24T16:23:01.269Z,46
2022-08-24T16:24:51.001Z,46
2022-08-24T16:26:51.642Z,46
2022-08-24T16:28:51.070Z,46
2022-08-24T16:30:50.971Z,46
2022-08-24T16:32:54.495Z,47
2022-08-24T16:34:50.948Z,47
2022-08-24T16:36:50.107Z,47
2022-08-24T16:38:51.089Z,47
2022-08-24T16:40:51.342Z,47
2022-08-24T16:42:50.368Z,47
2022-08-24T16:44:50.216Z,47
2022-08-24T16:46:50.289Z,47
2022-08-24T16:48:50.212Z,48
2022-08-24T16:50:51.677Z,48
2022-08-24T16:52:50.608Z,48
2022-08-24T16:54:50.612Z,48
2022-08-24T16:56:50.634Z,48
2022-08-24T16:58:50.514Z,48
2022-08-24T17:00:50.530Z,48
2022-08-24T17:02:50.558Z,48
2022-08-24T17:04:50.634Z,48
2022-08-24T17:06:51.444Z,48
2022-08-24T17:08:50.211Z,48
2022-08-24T17:10:50.285Z,49
2022-08-24T17:12:50.033Z,50
2022-08-24T17:14:51.016Z,50
2022-08-24T17:16:50.711Z,50
2022-08-24T17:18:51.739Z,50
2022-08-24T17:20:50.731Z,50
2022-08-24T17:22:50.526Z,50
2022-08-24T17:24:50.401Z,50
2022-08-24T17:26:50.669Z,50
2022-08-24T17:28:50.511Z,50
2022-08-24T17:30:52.184Z,50
2022-08-24T17:32:50.056Z,51
2022-08-24T17:34:50.380Z,51
2022-08-24T17:36:50.397Z,51
2022-08-24T17:38:56.621Z,51
2022-08-24T17:40:50.607Z,51
2022-08-24T17:42:52.449Z,51
2022-08-24T17:44:50.305Z,51
2022-08-24T17:46:50.430Z,52
2022-08-24T17:48:50.408Z,52
2022-08-24T17:50:50.259Z,52
2022-08-24T17:53:01.137Z,52
2022-08-24T17:54:50.313Z,52
2022-08-24T17:56:50.460Z,52
2022-08-24T17:58:50.444Z,52
2022-08-24T18:00:50.594Z,52
2022-08-24T18:02:50.656Z,52
2022-08-24T18:04:51.436Z,52
2022-08-24T18:06:50.541Z,52
2022-08-24T18:08:50.411Z,52
2022-08-24T18:10:50.235Z,52
2022-08-24T18:12:50.977Z,53
2022-08-24T18:14:50.978Z,52
2022-08-24T18:16:58.761Z,53
2022-08-24T18:18:50.792Z,53
2022-08-24T18:20:50.557Z,53
2022-08-24T18:23:02.987Z,53
2022-08-24T18:24:51.048Z,53
2022-08-24T18:26:50.173Z,53
2022-08-24T18:28:51.499Z,53
2022-08-24T18:30:50.525Z,53
2022-08-24T18:32:50.315Z,53
2022-08-24T18:34:50.617Z,53
2022-08-24T18:36:50.817Z,53
2022-08-24T18:38:50.902Z,54
2022-08-24T18:40:53.687Z,54
2022-08-24T18:42:50.611Z,54
2022-08-24T18:44:50.707Z,55
2022-08-24T18:46:50.975Z,55
2022-08-24T18:48:50.901Z,55
2022-08-24T18:50:50.764Z,55
2022-08-24T18:52:50.647Z,55
2022-08-24T18:54:50.636Z,55
2022-08-24T18:56:50.868Z,55
2022-08-24T18:58:50.805Z,55
2022-08-24T19:00:52.565Z,56
2022-08-24T19:02:50.534Z,56
2022-08-24T19:04:50.893Z,56
2022-08-24T19:06:50.040Z,56
2022-08-24T19:08:51.009Z,56
2022-08-24T19:10:50.799Z,56
2022-08-24T19:12:50.722Z,56
2022-08-24T19:14:50.421Z,56
2022-08-24T19:16:55.771Z,56
2022-08-24T19:18:50.826Z,56
2022-08-24T19:20:50.749Z,57
2022-08-24T19:22:51.709Z,57
2022-08-24T19:24:50.598Z,57
2022-08-24T19:26:52.693Z,57
2022-08-24T19:28:50.498Z,57
2022-08-24T19:30:50.391Z,57
2022-08-24T19:32:50.439Z,57
2022-08-24T19:34:50.874Z,58
2022-08-24T19:36:50.950Z,58
2022-08-24T19:38:52.657Z,58
2022-08-24T19:40:50.613Z,59
2022-08-24T19:42:51.165Z,60
2022-08-24T19:44:52.575Z,60
2022-08-24T19:46:50.502Z,59
2022-08-24T19:48:50.376Z,59
2022-08-24T19:50:50.717Z,59
2022-08-24T19:52:50.687Z,59
2022-08-24T19:54:52.444Z,60
2022-08-24T19:56:50.850Z,60
2022-08-24T19:58:50.827Z,62
2022-08-24T20:00:52.527Z,64
2022-08-24T20:02:50.478Z,64
2022-08-24T20:04:50.094Z,63
2022-08-24T20:06:50.120Z,63
2022-08-24T20:08:50.572Z,62
2022-08-24T20:10:50.578Z,62
2022-08-24T20:12:50.941Z,61
2022-08-24T20:14:50.845Z,61
2022-08-24T20:16:50.767Z,61
2022-08-24T20:18:51.655Z,62
2022-08-24T20:20:51.665Z,64
2022-08-24T20:22:50.657Z,63
2022-08-24T20:24:50.776Z,63
2022-08-24T20:26:51.007Z,63
2022-08-24T20:28:50.046Z,63
2022-08-24T20:30:50.089Z,66
2022-08-24T20:32:50.171Z,66
2022-08-24T20:34:50.731Z,66
2022-08-24T20:36:50.959Z,67
2022-08-24T20:38:50.897Z,67
2022-08-24T20:40:51.062Z,67
2022-08-24T20:42:50.906Z,67
2022-08-24T20:44:50.807Z,67
2022-08-24T20:46:50.468Z,68
2022-08-24T20:48:56.547Z,68
2022-08-24T20:50:50.393Z,68
2022-08-24T20:52:50.395Z,68
2022-08-24T20:54:50.330Z,67
2022-08-24T20:56:50.657Z,67
2022-08-24T20:58:50.512Z,67
2022-08-24T21:00:50.808Z,67
2022-08-24T21:02:50.866Z,67
2022-08-24T21:04:50.441Z,66
2022-08-24T21:06:51.858Z,66
2022-08-24T21:08:50.800Z,67
2022-08-24T21:10:50.834Z,67
2022-08-24T21:12:50.666Z,67
2022-08-24T21:14:51.817Z,68
2022-08-24T21:16:50.909Z,68
2022-08-24T21:18:51.026Z,69
2022-08-24T21:21:05.103Z,69
2022-08-24T21:22:50.859Z,68
2022-08-24T21:24:50.869Z,68
2022-08-24T21:26:50.194Z,68
2022-08-24T21:28:50.090Z,68
2022-08-24T21:30:51.040Z,68
2022-08-24T21:32:50.991Z,68
2022-08-24T21:34:50.646Z,68
2022-08-24T21:36:54.734Z,69
2022-08-24T21:38:50.544Z,69
2022-08-24T21:40:50.904Z,70
2022-08-24T21:42:52.017Z,70
2022-08-24T21:44:50.888Z,69
2022-08-24T21:46:50.373Z,68
2022-08-24T21:48:50.236Z,68
2022-08-24T21:50:50.172Z,69
2022-08-24T21:53:04.186Z,69
2022-08-24T21:54:50.747Z,70
2022-08-24T21:56:51.028Z,69
2022-08-24T21:58:51.011Z,69
2022-08-24T22:00:50.164Z,69
2022-08-24T22:02:50.706Z,69
2022-08-24T22:04:57.330Z,72
2022-08-24T22:06:50.547Z,73
2022-08-24T22:08:50.603Z,73
2022-08-24T22:10:50.558Z,73
2022-08-24T22:12:50.649Z,73
2022-08-24T22:14:50.382Z,72
2022-08-24T22:16:50.700Z,73
2022-08-24T22:18:50.440Z,73
2022-08-24T22:20:50.449Z,73
2022-08-24T22:22:50.309Z,73
2022-08-24T22:24:50.467Z,73
2022-08-24T22:26:50.607Z,73
2022-08-24T22:28:50.606Z,73
2022-08-24T22:30:50.937Z,73
2022-08-24T22:32:50.776Z,73
2022-08-24T22:34:50.080Z,73
2022-08-24T22:36:50.472Z,73
2022-08-24T22:38:50.494Z,73
2022-08-24T22:40:51.167Z,73
2022-08-24T22:42:50.174Z,73
2022-08-24T22:44:50.022Z,74
2022-08-24T22:46:50.627Z,74
2022-08-24T22:48:50.641Z,73
2022-08-24T22:50:50.602Z,73
2022-08-24T22:52:50.578Z,73
2022-08-24T22:54:50.483Z,73
2022-08-24T22:56:50.769Z,73
2022-08-24T22:58:50.804Z,72
2022-08-24T23:00:50.920Z,73
2022-08-24T23:02:50.950Z,74
2022-08-24T23:04:50.308Z,74
2022-08-24T23:06:50.581Z,74
2022-08-24T23:08:50.566Z,75
2022-08-24T23:10:50.433Z,75
2022-08-24T23:12:50.439Z,75
2022-08-24T23:14:50.431Z,75
2022-08-24T23:16:50.914Z,74
2022-08-24T23:18:50.823Z,74
2022-08-24T23:20:50.675Z,75
2022-08-24T23:22:50.494Z,74
2022-08-24T23:24:50.367Z,75
2022-08-24T23:26:50.685Z,75
2022-08-24T23:28:50.951Z,75
2022-08-24T23:30:51.270Z,76
2022-08-24T23:32:50.311Z,75
2022-08-24T23:34:50.747Z,74
2022-08-24T23:36:50.068Z,74
2022-08-24T23:38:50.863Z,74
2022-08-24T23:40:50.822Z,74
2022-08-24T23:42:50.829Z,74
2022-08-24T23:44:50.623Z,74
2022-08-24T23:46:50.898Z,74
2022-08-24T23:49:03.907Z,74
2022-08-24T23:50:50.505Z,74
2022-08-24T23:52:50.489Z,74
2022-08-24T23:54:50.490Z,74
2022-08-24T23:56:50.671Z,75
2022-08-24T23:58:53.677Z,75
